sensor_id;sensor_type;location;lat;lon;timestamp;temperature;humidity
75799;DHT22;64429;44.660;37.758;2022-10-29T00:04:27;25.24;77.99
75799;DHT22;64429;44.660;37.758;2022-10-29T00:16:16;25.21;81.74
75799;DHT22;64429;44.660;37.758;2022-10-29T00:18:45;25.19;82.71
75799;DHT22;64429;44.660;37.758;2022-10-29T00:23:26;25.22;81.53
75799;DHT22;64429;44.660;37.758;2022-10-29T00:30:28;25.21;80.24
75799;DHT22;64429;44.660;37.758;2022-10-29T00:32:56;25.22;82.57
75799;DHT22;64429;44.660;37.758;2022-10-29T00:35:24;25.20;83.40
75799;DHT22;64429;44.660;37.758;2022-10-29T00:37:52;25.20;82.78
75799;DHT22;64429;44.660;37.758;2022-10-29T00:40:20;25.19;86.29
75799;DHT22;64429;44.660;37.758;2022-10-29T00:42:48;25.18;88.99
75799;DHT22;64429;44.660;37.758;2022-10-29T00:45:19;25.16;91.37
75799;DHT22;64429;44.660;37.758;2022-10-29T00:50:10;25.19;90.91
75799;DHT22;64429;44.660;37.758;2022-10-29T00:52:43;25.18;90.88
75799;DHT22;64429;44.660;37.758;2022-10-29T00:57:44;25.17;95.70
75799;DHT22;64429;44.660;37.758;2022-10-29T01:00:18;25.18;91.87
75799;DHT22;64429;44.660;37.758;2022-10-29T01:02:47;25.19;91.80
75799;DHT22;64429;44.660;37.758;2022-10-29T01:05:18;25.19;90.08
75799;DHT22;64429;44.660;37.758;2022-10-29T01:37:19;25.12;95.21
75799;DHT22;64429;44.660;37.758;2022-10-29T01:44:37;25.13;97.20
75799;DHT22;64429;44.660;37.758;2022-10-29T01:49:27;25.09;96.75
75799;DHT22;64429;44.660;37.758;2022-10-29T01:51:56;25.07;96.60
75799;DHT22;64429;44.660;37.758;2022-10-29T01:59:08;25.10;95.52
75799;DHT22;64429;44.660;37.758;2022-10-29T02:01:57;25.13;94.89
75799;DHT22;64429;44.660;37.758;2022-10-29T02:22:22;25.12;93.21
75799;DHT22;64429;44.660;37.758;2022-10-29T02:24:50;25.12;92.33
75799;DHT22;64429;44.660;37.758;2022-10-29T02:27:18;25.14;91.37
75799;DHT22;64429;44.660;37.758;2022-10-29T02:32:07;25.15;87.45
75799;DHT22;64429;44.660;37.758;2022-10-29T02:34:35;25.12;92.43
75799;DHT22;64429;44.660;37.758;2022-10-29T02:37:03;25.13;90.48
75799;DHT22;64429;44.660;37.758;2022-10-29T02:39:31;25.12;92.24
75799;DHT22;64429;44.660;37.758;2022-10-29T02:41:59;25.13;88.62
75799;DHT22;64429;44.660;37.758;2022-10-29T02:44:27;25.10;91.36
75799;DHT22;64429;44.660;37.758;2022-10-29T02:46:55;25.14;88.32
75799;DHT22;64429;44.660;37.758;2022-10-29T02:49:23;25.13;91.99
75799;DHT22;64429;44.660;37.758;2022-10-29T02:52:08;25.14;88.88
75799;DHT22;64429;44.660;37.758;2022-10-29T02:54:37;25.14;89.19
75799;DHT22;64429;44.660;37.758;2022-10-29T02:57:23;25.12;91.24
75799;DHT22;64429;44.660;37.758;2022-10-29T02:59:51;25.15;87.12
75799;DHT22;64429;44.660;37.758;2022-10-29T03:04:50;25.17;89.09
75799;DHT22;64429;44.660;37.758;2022-10-29T03:07:18;25.14;89.19
75799;DHT22;64429;44.660;37.758;2022-10-29T03:09:46;25.13;92.12
75799;DHT22;64429;44.660;37.758;2022-10-29T03:12:14;25.14;90.38
75799;DHT22;64429;44.660;37.758;2022-10-29T03:14:42;25.15;89.02
75799;DHT22;64429;44.660;37.758;2022-10-29T03:17:10;25.13;92.05
75799;DHT22;64429;44.660;37.758;2022-10-29T03:19:38;25.14;91.90
75799;DHT22;64429;44.660;37.758;2022-10-29T03:22:06;25.15;94.17
75799;DHT22;64429;44.660;37.758;2022-10-29T03:24:34;25.14;90.22
75799;DHT22;64429;44.660;37.758;2022-10-29T03:27:02;25.14;90.20
75799;DHT22;64429;44.660;37.758;2022-10-29T03:29:29;25.10;90.38
75799;DHT22;64429;44.660;37.758;2022-10-29T03:31:58;25.12;95.43
75799;DHT22;64429;44.660;37.758;2022-10-29T03:34:26;25.15;88.99
75799;DHT22;64429;44.660;37.758;2022-10-29T03:37:11;25.17;87.23
75799;DHT22;64429;44.660;37.758;2022-10-29T03:39:39;25.17;88.54
75799;DHT22;64429;44.660;37.758;2022-10-29T03:42:07;25.15;92.18
75799;DHT22;64429;44.660;37.758;2022-10-29T03:49:01;25.16;89.02
75799;DHT22;64429;44.660;37.758;2022-10-29T03:51:29;25.15;89.36
75799;DHT22;64429;44.660;37.758;2022-10-29T03:53:57;25.15;91.65
75799;DHT22;64429;44.660;37.758;2022-10-29T03:58:38;25.15;89.20
75799;DHT22;64429;44.660;37.758;2022-10-29T04:01:08;25.14;92.59
75799;DHT22;64429;44.660;37.758;2022-10-29T04:03:38;25.14;88.45
75799;DHT22;64429;44.660;37.758;2022-10-29T04:06:13;25.15;90.89
75799;DHT22;64429;44.660;37.758;2022-10-29T04:08:59;25.15;90.55
75799;DHT22;64429;44.660;37.758;2022-10-29T04:11:44;25.14;89.45
75799;DHT22;64429;44.660;37.758;2022-10-29T04:14:12;25.13;87.51
75799;DHT22;64429;44.660;37.758;2022-10-29T04:16:40;25.12;87.64
75799;DHT22;64429;44.660;37.758;2022-10-29T04:19:07;25.10;89.82
75799;DHT22;64429;44.660;37.758;2022-10-29T04:21:35;25.10;89.41
75799;DHT22;64429;44.660;37.758;2022-10-29T04:24:23;25.08;91.02
75799;DHT22;64429;44.660;37.758;2022-10-29T04:27:11;25.10;91.96
75799;DHT22;64429;44.660;37.758;2022-10-29T04:29:59;25.10;89.55
75799;DHT22;64429;44.660;37.758;2022-10-29T04:32:27;25.12;89.12
75799;DHT22;64429;44.660;37.758;2022-10-29T04:35:12;25.14;86.58
75799;DHT22;64429;44.660;37.758;2022-10-29T04:37:40;25.13;90.68
75799;DHT22;64429;44.660;37.758;2022-10-29T04:42:22;25.10;95.47
75799;DHT22;64429;44.660;37.758;2022-10-29T04:47:03;25.10;94.27
75799;DHT22;64429;44.660;37.758;2022-10-29T04:53:57;25.13;95.74
75799;DHT22;64429;44.660;37.758;2022-10-29T04:56:25;25.09;89.56
75799;DHT22;64429;44.660;37.758;2022-10-29T04:59:10;25.10;88.63
75799;DHT22;64429;44.660;37.758;2022-10-29T05:01:39;25.13;86.58
75799;DHT22;64429;44.660;37.758;2022-10-29T05:04:08;25.10;88.22
75799;DHT22;64429;44.660;37.758;2022-10-29T05:06:53;25.10;90.84
75799;DHT22;64429;44.660;37.758;2022-10-29T05:09:21;25.13;90.94
75799;DHT22;64429;44.660;37.758;2022-10-29T05:11:49;25.12;88.87
75799;DHT22;64429;44.660;37.758;2022-10-29T05:18:42;25.12;91.50
75799;DHT22;64429;44.660;37.758;2022-10-29T05:21:28;25.10;90.77
75799;DHT22;64429;44.660;37.758;2022-10-29T05:23:56;25.14;88.63
75799;DHT22;64429;44.660;37.758;2022-10-29T05:26:24;25.14;88.07
75799;DHT22;64429;44.660;37.758;2022-10-29T05:28:52;25.14;88.44
75799;DHT22;64429;44.660;37.758;2022-10-29T05:33:34;25.15;91.05
75799;DHT22;64429;44.660;37.758;2022-10-29T05:36:19;25.13;89.35
75799;DHT22;64429;44.660;37.758;2022-10-29T05:38:47;25.14;89.57
75799;DHT22;64429;44.660;37.758;2022-10-29T05:41:15;25.16;89.18
75799;DHT22;64429;44.660;37.758;2022-10-29T05:43:43;25.17;86.90
75799;DHT22;64429;44.660;37.758;2022-10-29T05:46:14;25.17;86.11
75799;DHT22;64429;44.660;37.758;2022-10-29T05:48:43;25.16;88.82
75799;DHT22;64429;44.660;37.758;2022-10-29T05:51:11;25.17;88.67
75799;DHT22;64429;44.660;37.758;2022-10-29T05:53:56;25.19;87.68
75799;DHT22;64429;44.660;37.758;2022-10-29T05:56:24;25.19;88.81
75799;DHT22;64429;44.660;37.758;2022-10-29T05:59:09;25.18;87.64
75799;DHT22;64429;44.660;37.758;2022-10-29T06:01:38;25.19;87.03
75799;DHT22;64429;44.660;37.758;2022-10-29T06:04:06;25.19;88.15
75799;DHT22;64429;44.660;37.758;2022-10-29T06:06:51;25.20;90.24
75799;DHT22;64429;44.660;37.758;2022-10-29T06:09:19;25.19;91.94
75799;DHT22;64429;44.660;37.758;2022-10-29T06:11:47;25.20;90.36
75799;DHT22;64429;44.660;37.758;2022-10-29T06:14:34;25.21;97.46
75799;DHT22;64429;44.660;37.758;2022-10-29T06:19:33;25.20;98.42
75799;DHT22;64429;44.660;37.758;2022-10-29T06:22:01;25.22;97.70
75799;DHT22;64429;44.660;37.758;2022-10-29T06:24:29;25.23;97.58
75799;DHT22;64429;44.660;37.758;2022-10-29T06:26:57;25.22;96.71
75799;DHT22;64429;44.660;37.758;2022-10-29T06:29:41;25.24;97.31
75799;DHT22;64429;44.660;37.758;2022-10-29T06:32:09;25.21;97.32
75799;DHT22;64429;44.660;37.758;2022-10-29T06:36:50;25.22;97.74
75799;DHT22;64429;44.660;37.758;2022-10-29T06:39:18;25.23;98.33
75799;DHT22;64429;44.660;37.758;2022-10-29T06:41:46;25.23;96.29
75799;DHT22;64429;44.660;37.758;2022-10-29T06:44:18;25.25;98.49
75799;DHT22;64429;44.660;37.758;2022-10-29T06:46:46;25.24;96.37
75799;DHT22;64429;44.660;37.758;2022-10-29T06:49:13;25.27;92.98
75799;DHT22;64429;44.660;37.758;2022-10-29T06:51:41;25.25;99.44
75799;DHT22;64429;44.660;37.758;2022-10-29T06:54:09;25.25;97.45
75799;DHT22;64429;44.660;37.758;2022-10-29T06:56:37;25.28;96.17
75799;DHT22;64429;44.660;37.758;2022-10-29T06:59:22;25.32;95.35
75799;DHT22;64429;44.660;37.758;2022-10-29T07:04:05;25.34;96.39
75799;DHT22;64429;44.660;37.758;2022-10-29T07:06:34;25.34;95.91
75799;DHT22;64429;44.660;37.758;2022-10-29T07:09:02;25.36;96.17
75799;DHT22;64429;44.660;37.758;2022-10-29T07:11:30;25.33;99.30
75799;DHT22;64429;44.660;37.758;2022-10-29T07:13:58;25.36;97.81
75799;DHT22;64429;44.660;37.758;2022-10-29T07:16:26;25.35;98.40
75799;DHT22;64429;44.660;37.758;2022-10-29T07:18:54;25.35;100.54
75799;DHT22;64429;44.660;37.758;2022-10-29T07:21:22;25.35;97.55
75799;DHT22;64429;44.660;37.758;2022-10-29T07:24:08;25.37;98.61
75799;DHT22;64429;44.660;37.758;2022-10-29T07:26:37;25.35;96.19
75799;DHT22;64429;44.660;37.758;2022-10-29T07:29:04;25.36;96.59
75799;DHT22;64429;44.660;37.758;2022-10-29T07:31:32;25.36;98.33
75799;DHT22;64429;44.660;37.758;2022-10-29T07:34:00;25.35;95.06
75799;DHT22;64429;44.660;37.758;2022-10-29T07:36:31;25.37;95.82
75799;DHT22;64429;44.660;37.758;2022-10-29T07:39:17;25.39;96.10
75799;DHT22;64429;44.660;37.758;2022-10-29T07:43:58;25.43;95.43
75799;DHT22;64429;44.660;37.758;2022-10-29T07:48:57;25.45;92.74
75799;DHT22;64429;44.660;37.758;2022-10-29T07:51:42;25.44;93.19
75799;DHT22;64429;44.660;37.758;2022-10-29T07:54:10;25.47;97.68
75799;DHT22;64429;44.660;37.758;2022-10-29T07:56:41;25.48;92.57
75799;DHT22;64429;44.660;37.758;2022-10-29T07:59:09;25.50;92.01
75799;DHT22;64429;44.660;37.758;2022-10-29T08:03:54;25.52;93.01
75799;DHT22;64429;44.660;37.758;2022-10-29T08:06:22;25.54;92.22
75799;DHT22;64429;44.660;37.758;2022-10-29T08:08:50;25.51;86.38
75799;DHT22;64429;44.660;37.758;2022-10-29T08:11:35;25.44;85.42
75799;DHT22;64429;44.660;37.758;2022-10-29T08:14:03;25.43;82.82
75799;DHT22;64429;44.660;37.758;2022-10-29T08:16:31;25.38;83.78
75799;DHT22;64429;44.660;37.758;2022-10-29T08:19:00;25.39;84.93
75799;DHT22;64429;44.660;37.758;2022-10-29T08:21:28;25.38;82.11
75799;DHT22;64429;44.660;37.758;2022-10-29T08:26:09;25.38;82.39
75799;DHT22;64429;44.660;37.758;2022-10-29T08:28:38;25.40;79.14
75799;DHT22;64429;44.660;37.758;2022-10-29T08:33:18;25.43;80.30
75799;DHT22;64429;44.660;37.758;2022-10-29T08:35:47;25.44;80.14
75799;DHT22;64429;44.660;37.758;2022-10-29T08:40:43;25.45;76.15
75799;DHT22;64429;44.660;37.758;2022-10-29T08:45:56;25.49;77.16
75799;DHT22;64429;44.660;37.758;2022-10-29T08:51:41;25.57;72.00
75799;DHT22;64429;44.660;37.758;2022-10-29T08:54:12;25.59;72.23
75799;DHT22;64429;44.660;37.758;2022-10-29T08:56:58;25.64;69.42
75799;DHT22;64429;44.660;37.758;2022-10-29T08:59:31;25.69;60.60
75799;DHT22;64429;44.660;37.758;2022-10-29T09:02:03;25.72;56.32
75799;DHT22;64429;44.660;37.758;2022-10-29T09:04:33;25.73;57.07
75799;DHT22;64429;44.660;37.758;2022-10-29T09:12:59;25.76;56.14
75799;DHT22;64429;44.660;37.758;2022-10-29T09:15:57;25.75;53.31
75799;DHT22;64429;44.660;37.758;2022-10-29T09:18:59;25.74;56.36
75799;DHT22;64429;44.660;37.758;2022-10-29T09:21:44;25.75;63.34
75799;DHT22;64429;44.660;37.758;2022-10-29T09:24:32;25.75;55.51
75799;DHT22;64429;44.660;37.758;2022-10-29T09:27:14;25.76;53.78
75799;DHT22;64429;44.660;37.758;2022-10-29T09:32:39;25.75;55.01
75799;DHT22;64429;44.660;37.758;2022-10-29T09:35:15;25.77;55.37
75799;DHT22;64429;44.660;37.758;2022-10-29T09:37:48;25.75;53.27
75799;DHT22;64429;44.660;37.758;2022-10-29T09:40:38;25.76;54.26
75799;DHT22;64429;44.660;37.758;2022-10-29T09:54:44;25.75;57.66
75799;DHT22;64429;44.660;37.758;2022-10-29T09:57:21;25.76;60.20
75799;DHT22;64429;44.660;37.758;2022-10-29T09:59:53;25.76;52.78
75799;DHT22;64429;44.660;37.758;2022-10-29T10:02:35;25.75;57.51
75799;DHT22;64429;44.660;37.758;2022-10-29T10:05:13;25.75;56.17
75799;DHT22;64429;44.660;37.758;2022-10-29T10:08:10;25.73;62.28
75799;DHT22;64429;44.660;37.758;2022-10-29T10:11:00;25.73;58.00
75799;DHT22;64429;44.660;37.758;2022-10-29T10:13:58;25.75;56.42
75799;DHT22;64429;44.660;37.758;2022-10-29T10:16:28;25.72;55.74
75799;DHT22;64429;44.660;37.758;2022-10-29T10:19:21;25.74;52.43
75799;DHT22;64429;44.660;37.758;2022-10-29T10:22:03;25.72;51.45
75799;DHT22;64429;44.660;37.758;2022-10-29T10:24:33;25.72;54.69
75799;DHT22;64429;44.660;37.758;2022-10-29T10:27:28;25.72;58.97
75799;DHT22;64429;44.660;37.758;2022-10-29T10:32:47;25.64;72.30
75799;DHT22;64429;44.660;37.758;2022-10-29T10:35:30;25.64;65.44
75799;DHT22;64429;44.660;37.758;2022-10-29T10:38:16;25.63;73.23
75799;DHT22;64429;44.660;37.758;2022-10-29T10:40:55;25.63;76.63
75799;DHT22;64429;44.660;37.758;2022-10-29T10:43:24;25.68;78.79
75799;DHT22;64429;44.660;37.758;2022-10-29T10:45:56;25.72;53.31
75799;DHT22;64429;44.660;37.758;2022-10-29T10:48:26;25.69;50.95
75799;DHT22;64429;44.660;37.758;2022-10-29T10:51:23;25.66;55.73
75799;DHT22;64429;44.660;37.758;2022-10-29T10:53:52;25.63;62.26
75799;DHT22;64429;44.660;37.758;2022-10-29T10:56:21;25.66;58.96
75799;DHT22;64429;44.660;37.758;2022-10-29T10:59:11;25.65;58.95
75799;DHT22;64429;44.660;37.758;2022-10-29T11:01:47;25.60;65.50
75799;DHT22;64429;44.660;37.758;2022-10-29T11:04:21;25.62;66.24
75799;DHT22;64429;44.660;37.758;2022-10-29T11:06:51;25.58;72.65
75799;DHT22;64429;44.660;37.758;2022-10-29T11:11:42;25.57;70.98
75799;DHT22;64429;44.660;37.758;2022-10-29T11:14:32;25.57;68.78
75799;DHT22;64429;44.660;37.758;2022-10-29T11:17:31;25.56;66.53
75799;DHT22;64429;44.660;37.758;2022-10-29T11:20:27;25.58;71.45
75799;DHT22;64429;44.660;37.758;2022-10-29T11:23:21;25.57;69.64
75799;DHT22;64429;44.660;37.758;2022-10-29T11:28:20;25.54;71.55
75799;DHT22;64429;44.660;37.758;2022-10-29T11:31:08;25.53;68.92
75799;DHT22;64429;44.660;37.758;2022-10-29T11:36:19;25.58;67.94
75799;DHT22;64429;44.660;37.758;2022-10-29T11:39:14;25.59;61.65
75799;DHT22;64429;44.660;37.758;2022-10-29T11:41:56;25.61;55.47
75799;DHT22;64429;44.660;37.758;2022-10-29T11:44:26;25.60;59.83
75799;DHT22;64429;44.660;37.758;2022-10-29T11:58:20;25.53;61.76
75799;DHT22;64429;44.660;37.758;2022-10-29T12:00:58;25.49;64.34
75799;DHT22;64429;44.660;37.758;2022-10-29T12:06:30;25.49;62.46
75799;DHT22;64429;44.660;37.758;2022-10-29T12:20:58;25.45;66.22
75799;DHT22;64429;44.660;37.758;2022-10-29T12:38:40;25.34;73.15
75799;DHT22;64429;44.660;37.758;2022-10-29T12:41:47;25.37;67.63
75799;DHT22;64429;44.660;37.758;2022-10-29T12:44:27;25.37;69.68
75799;DHT22;64429;44.660;37.758;2022-10-29T12:47:24;25.36;64.14
75799;DHT22;64429;44.660;37.758;2022-10-29T12:52:35;25.35;65.66
75799;DHT22;64429;44.660;37.758;2022-10-29T12:57:32;25.36;64.31
75799;DHT22;64429;44.660;37.758;2022-10-29T13:01:05;25.38;59.54
75799;DHT22;64429;44.660;37.758;2022-10-29T13:09:28;25.39;54.65
75799;DHT22;64429;44.660;37.758;2022-10-29T13:11:58;25.36;61.34
75799;DHT22;64429;44.660;37.758;2022-10-29T13:16:55;25.39;60.23
75799;DHT22;64429;44.660;37.758;2022-10-29T13:21:58;25.42;54.86
75799;DHT22;64429;44.660;37.758;2022-10-29T13:24:27;25.43;57.13
75799;DHT22;64429;44.660;37.758;2022-10-29T13:27:03;25.43;59.35
75799;DHT22;64429;44.660;37.758;2022-10-29T13:30:15;25.44;60.70
75799;DHT22;64429;44.660;37.758;2022-10-29T13:41:34;25.46;61.11
75799;DHT22;64429;44.660;37.758;2022-10-29T13:47:02;25.46;61.84
75799;DHT22;64429;44.660;37.758;2022-10-29T13:49:36;25.46;64.35
75799;DHT22;64429;44.660;37.758;2022-10-29T13:52:20;25.47;61.77
75799;DHT22;64429;44.660;37.758;2022-10-29T13:55:26;25.49;56.64
75799;DHT22;64429;44.660;37.758;2022-10-29T13:58:07;25.50;56.74
75799;DHT22;64429;44.660;37.758;2022-10-29T14:00:41;25.52;53.44
75799;DHT22;64429;44.660;37.758;2022-10-29T14:06:20;25.52;54.96
75799;DHT22;64429;44.660;37.758;2022-10-29T14:08:56;25.50;53.60
75799;DHT22;64429;44.660;37.758;2022-10-29T14:14:00;25.51;51.27
75799;DHT22;64429;44.660;37.758;2022-10-29T14:16:31;25.52;51.86
75799;DHT22;64429;44.660;37.758;2022-10-29T14:19:13;25.52;51.57
75799;DHT22;64429;44.660;37.758;2022-10-29T14:21:59;25.51;53.65
75799;DHT22;64429;44.660;37.758;2022-10-29T14:24:36;25.52;51.98
75799;DHT22;64429;44.660;37.758;2022-10-29T14:27:06;25.52;53.09
75799;DHT22;64429;44.660;37.758;2022-10-29T14:29:34;25.52;53.07
75799;DHT22;64429;44.660;37.758;2022-10-29T14:32:16;25.51;53.37
75799;DHT22;64429;44.660;37.758;2022-10-29T14:35:03;25.51;53.70
75799;DHT22;64429;44.660;37.758;2022-10-29T14:37:36;25.52;53.07
75799;DHT22;64429;44.660;37.758;2022-10-29T14:40:21;25.53;51.72
75799;DHT22;64429;44.660;37.758;2022-10-29T14:42:52;25.52;53.70
75799;DHT22;64429;44.660;37.758;2022-10-29T14:45:24;25.52;51.88
75799;DHT22;64429;44.660;37.758;2022-10-29T14:48:00;25.53;51.38
75799;DHT22;64429;44.660;37.758;2022-10-29T14:50:49;25.52;54.10
75799;DHT22;64429;44.660;37.758;2022-10-29T14:53:33;25.52;51.18
75799;DHT22;64429;44.660;37.758;2022-10-29T14:56:08;25.52;52.90
75799;DHT22;64429;44.660;37.758;2022-10-29T14:58:38;25.52;54.45
75799;DHT22;64429;44.660;37.758;2022-10-29T15:01:17;25.53;56.49
75799;DHT22;64429;44.660;37.758;2022-10-29T15:04:11;25.54;55.16
75799;DHT22;64429;44.660;37.758;2022-10-29T15:06:43;25.58;52.99
75799;DHT22;64429;44.660;37.758;2022-10-29T15:09:14;25.58;53.14
75799;DHT22;64429;44.660;37.758;2022-10-29T15:12:02;25.56;64.48
75799;DHT22;64429;44.660;37.758;2022-10-29T15:14:52;25.58;57.08
75799;DHT22;64429;44.660;37.758;2022-10-29T15:17:22;25.60;54.55
75799;DHT22;64429;44.660;37.758;2022-10-29T15:20:01;25.61;52.84
75799;DHT22;64429;44.660;37.758;2022-10-29T15:25:11;25.61;52.14
75799;DHT22;64429;44.660;37.758;2022-10-29T15:27:43;25.61;51.66
75799;DHT22;64429;44.660;37.758;2022-10-29T15:30:26;25.61;53.33
75799;DHT22;64429;44.660;37.758;2022-10-29T15:32:58;25.63;51.07
75799;DHT22;64429;44.660;37.758;2022-10-29T15:35:27;25.62;54.32
75799;DHT22;64429;44.660;37.758;2022-10-29T15:37:55;25.63;53.01
75799;DHT22;64429;44.660;37.758;2022-10-29T15:40:24;25.62;51.30
75799;DHT22;64429;44.660;37.758;2022-10-29T15:42:53;25.63;51.20
75799;DHT22;64429;44.660;37.758;2022-10-29T15:45:26;25.61;51.90
75799;DHT22;64429;44.660;37.758;2022-10-29T15:50:13;25.59;53.46
75799;DHT22;64429;44.660;37.758;2022-10-29T15:53:00;25.60;52.69
75799;DHT22;64429;44.660;37.758;2022-10-29T15:55:34;25.60;51.50
75799;DHT22;64429;44.660;37.758;2022-10-29T15:58:05;25.58;52.13
75799;DHT22;64429;44.660;37.758;2022-10-29T16:00:36;25.56;52.46
75799;DHT22;64429;44.660;37.758;2022-10-29T16:03:12;25.58;53.32
75799;DHT22;64429;44.660;37.758;2022-10-29T16:06:00;25.54;61.44
75799;DHT22;64429;44.660;37.758;2022-10-29T16:08:33;25.57;61.86
75799;DHT22;64429;44.660;37.758;2022-10-29T16:11:19;25.60;55.98
75799;DHT22;64429;44.660;37.758;2022-10-29T16:13:48;25.62;52.04
75799;DHT22;64429;44.660;37.758;2022-10-29T16:18:31;25.60;61.75
75799;DHT22;64429;44.660;37.758;2022-10-29T16:21:19;25.61;56.58
75799;DHT22;64429;44.660;37.758;2022-10-29T16:23:48;25.63;58.35
75799;DHT22;64429;44.660;37.758;2022-10-29T16:26:20;25.61;56.90
75799;DHT22;64429;44.660;37.758;2022-10-29T16:28:49;25.63;55.79
75799;DHT22;64429;44.660;37.758;2022-10-29T16:31:37;25.64;56.74
75799;DHT22;64429;44.660;37.758;2022-10-29T16:34:09;25.59;69.61
75799;DHT22;64429;44.660;37.758;2022-10-29T16:36:40;25.60;68.68
75799;DHT22;64429;44.660;37.758;2022-10-29T16:39:08;25.60;75.75
75799;DHT22;64429;44.660;37.758;2022-10-29T16:41:53;25.60;74.78
75799;DHT22;64429;44.660;37.758;2022-10-29T16:44:21;25.53;79.29
75799;DHT22;64429;44.660;37.758;2022-10-29T16:46:49;25.60;69.07
75799;DHT22;64429;44.660;37.758;2022-10-29T16:49:17;25.63;62.16
75799;DHT22;64429;44.660;37.758;2022-10-29T16:51:45;25.61;63.27
75799;DHT22;64429;44.660;37.758;2022-10-29T16:54:13;25.62;64.18
75799;DHT22;64429;44.660;37.758;2022-10-29T16:56:41;25.59;64.08
75799;DHT22;64429;44.660;37.758;2022-10-29T16:59:09;25.58;63.21
75799;DHT22;64429;44.660;37.758;2022-10-29T17:03:51;25.57;63.11
75799;DHT22;64429;44.660;37.758;2022-10-29T17:06:20;25.57;65.09
75799;DHT22;64429;44.660;37.758;2022-10-29T17:08:48;25.56;69.78
75799;DHT22;64429;44.660;37.758;2022-10-29T17:11:16;25.53;71.14
75799;DHT22;64429;44.660;37.758;2022-10-29T17:13:44;25.53;61.98
75799;DHT22;64429;44.660;37.758;2022-10-29T17:16:12;25.54;62.46
75799;DHT22;64429;44.660;37.758;2022-10-29T17:19:01;25.53;61.98
75799;DHT22;64429;44.660;37.758;2022-10-29T17:21:30;25.54;61.09
75799;DHT22;64429;44.660;37.758;2022-10-29T17:23:58;25.49;74.76
75799;DHT22;64429;44.660;37.758;2022-10-29T17:26:28;25.47;74.06
75799;DHT22;64429;44.660;37.758;2022-10-29T17:28:56;25.46;74.06
75799;DHT22;64429;44.660;37.758;2022-10-29T17:31:42;25.44;74.91
75799;DHT22;64429;44.660;37.758;2022-10-29T17:34:27;25.47;69.47
75799;DHT22;64429;44.660;37.758;2022-10-29T17:36:59;25.43;73.90
75799;DHT22;64429;44.660;37.758;2022-10-29T17:39:39;25.39;76.06
75799;DHT22;64429;44.660;37.758;2022-10-29T17:42:16;25.42;73.15
75799;DHT22;64429;44.660;37.758;2022-10-29T17:44:47;25.38;77.48
75799;DHT22;64429;44.660;37.758;2022-10-29T17:47:33;25.42;74.57
75799;DHT22;64429;44.660;37.758;2022-10-29T17:50:01;25.37;78.86
75799;DHT22;64429;44.660;37.758;2022-10-29T17:54:42;25.33;83.10
75799;DHT22;64429;44.660;37.758;2022-10-29T17:57:13;25.34;83.09
75799;DHT22;64429;44.660;37.758;2022-10-29T17:59:59;25.31;85.35
75799;DHT22;64429;44.660;37.758;2022-10-29T18:02:27;25.31;86.26
75799;DHT22;64429;44.660;37.758;2022-10-29T18:04:56;25.31;82.23
75799;DHT22;64429;44.660;37.758;2022-10-29T18:07:24;25.28;85.76
75799;DHT22;64429;44.660;37.758;2022-10-29T18:12:05;25.30;81.90
75799;DHT22;64429;44.660;37.758;2022-10-29T18:14:34;25.30;85.58
75799;DHT22;64429;44.660;37.758;2022-10-29T18:17:19;25.30;82.71
75799;DHT22;64429;44.660;37.758;2022-10-29T18:24:13;25.29;84.06
75799;DHT22;64429;44.660;37.758;2022-10-29T18:31:07;25.28;84.83
75799;DHT22;64429;44.660;37.758;2022-10-29T18:33:35;25.27;84.29
75799;DHT22;64429;44.660;37.758;2022-10-29T18:36:21;25.27;83.11
75799;DHT22;64429;44.660;37.758;2022-10-29T18:39:06;25.27;85.01
75799;DHT22;64429;44.660;37.758;2022-10-29T18:41:34;25.29;85.57
75799;DHT22;64429;44.660;37.758;2022-10-29T18:44:02;25.31;82.68
75799;DHT22;64429;44.660;37.758;2022-10-29T18:46:30;25.31;84.22
75799;DHT22;64429;44.660;37.758;2022-10-29T18:48:59;25.32;84.03
75799;DHT22;64429;44.660;37.758;2022-10-29T18:51:29;25.34;82.97
75799;DHT22;64429;44.660;37.758;2022-10-29T18:53:57;25.34;82.00
75799;DHT22;64429;44.660;37.758;2022-10-29T18:56:42;25.33;86.83
75799;DHT22;64429;44.660;37.758;2022-10-29T18:59:11;25.33;85.55
75799;DHT22;64429;44.660;37.758;2022-10-29T19:01:40;25.35;84.34
75799;DHT22;64429;44.660;37.758;2022-10-29T19:04:13;25.34;86.61
75799;DHT22;64429;44.660;37.758;2022-10-29T19:06:42;25.37;87.55
75799;DHT22;64429;44.660;37.758;2022-10-29T19:09:11;25.36;83.26
75799;DHT22;64429;44.660;37.758;2022-10-29T19:11:56;25.39;82.97
75799;DHT22;64429;44.660;37.758;2022-10-29T19:14:24;25.38;86.05
75799;DHT22;64429;44.660;37.758;2022-10-29T19:17:09;25.39;83.80
75799;DHT22;64429;44.660;37.758;2022-10-29T19:19:37;25.43;80.47
75799;DHT22;64429;44.660;37.758;2022-10-29T19:22:05;25.43;82.83
75799;DHT22;64429;44.660;37.758;2022-10-29T19:24:33;25.44;82.68
75799;DHT22;64429;44.660;37.758;2022-10-29T19:27:01;25.44;84.90
75799;DHT22;64429;44.660;37.758;2022-10-29T19:29:29;25.40;86.09
75799;DHT22;64429;44.660;37.758;2022-10-29T19:31:57;25.46;80.46
75799;DHT22;64429;44.660;37.758;2022-10-29T19:34:26;25.47;82.81
75799;DHT22;64429;44.660;37.758;2022-10-29T19:36:54;25.47;82.87
75799;DHT22;64429;44.660;37.758;2022-10-29T19:39:39;25.50;82.22
75799;DHT22;64429;44.660;37.758;2022-10-29T19:42:07;25.50;82.49
75799;DHT22;64429;44.660;37.758;2022-10-29T19:44:35;25.51;85.01
75799;DHT22;64429;44.660;37.758;2022-10-29T19:47:03;25.52;82.95
75799;DHT22;64429;44.660;37.758;2022-10-29T19:49:48;25.52;83.61
75799;DHT22;64429;44.660;37.758;2022-10-29T19:52:33;25.54;82.55
75799;DHT22;64429;44.660;37.758;2022-10-29T19:55:01;25.53;83.10
75799;DHT22;64429;44.660;37.758;2022-10-29T19:57:29;25.56;85.15
75799;DHT22;64429;44.660;37.758;2022-10-29T19:59:57;25.57;84.50
75799;DHT22;64429;44.660;37.758;2022-10-29T20:02:26;25.58;84.59
75799;DHT22;64429;44.660;37.758;2022-10-29T20:05:12;25.57;85.19
75799;DHT22;64429;44.660;37.758;2022-10-29T20:07:40;25.58;85.26
75799;DHT22;64429;44.660;37.758;2022-10-29T20:10:25;25.58;84.63
75799;DHT22;64429;44.660;37.758;2022-10-29T20:12:54;25.58;84.32
75799;DHT22;64429;44.660;37.758;2022-10-29T20:17:35;25.57;84.74
75799;DHT22;64429;44.660;37.758;2022-10-29T20:20:20;25.58;83.94
75799;DHT22;64429;44.660;37.758;2022-10-29T20:22:48;25.58;83.45
75799;DHT22;64429;44.660;37.758;2022-10-29T20:25:37;25.59;83.77